»·PEaware :: SWA798 KLAS-KBUR

SWA798 :: KLAS-KBUR

FLIGHT INFORMATION

Flight Status: Arrived
Operator:
Southwest Airlines
More flights by this operator :: More flights under this callsign
Pilot: Ben F. (2808)
Aircraft: BOEING 737-200
(B732)
More flights by this aircraft type
Origin: KLAS McCarran Intl
United States
Destination: KBUR Bob Hope-Burbank
United States
More flights between these airports :: More routes between these airports
Route: MCCRN5 HEC LYNXX8
File this flight plan on PilotEdge
Remarks: PBN / A1B2 NAV / RNVD1E2A1 REG / N275SB RMK / SIMBRIEF
Altitude:
(Current/Filed)
22,000ft
Speed:
(Current/Filed)
404kts
Departed: 28-Nov-17 08:56 AM
Arrived: 28-Nov-17 09:43 AM
Distance/Time
Traveled:
193nm/0:46
Distance/Time
To Go:
Arrived

Flight Plot

Page will automatically refresh every two minutes.

Flight plan parsing failed; only flown route is shown


Map Options




Map Legend


Flown Route
Filed Route
Departure Airport
Arrival Airport
Navaid (VOR, NDB)
Fix

Horizontal Profiles

Position Reports

Time Latitude Longitude Heading Altitude Ground
Speed
28-Nov-17 08:43 36.079792 -115.146277 342 2189ft 0kts
28-Nov-17 08:44 36.079792 -115.146277 342 2189ft 0kts
28-Nov-17 08:45 36.079791 -115.146277 342 2189ft 0kts
28-Nov-17 08:46 36.079791 -115.146277 342 2189ft 0kts
28-Nov-17 08:47 36.079791 -115.146277 342 2189ft 0kts
28-Nov-17 08:48 36.079791 -115.146277 342 2189ft 0kts
28-Nov-17 08:49 36.079791 -115.146277 342 2189ft 0kts
28-Nov-17 08:50 36.079791 -115.146277 342 2189ft 0kts
28-Nov-17 08:51 36.079766 -115.146262 323 2189ft 2kts
28-Nov-17 08:52 36.079266 -115.145982 318 2189ft 2kts
28-Nov-17 08:53 36.079118 -115.145301 250 2189ft 2kts
28-Nov-17 08:54 36.079571 -115.144875 182 2189ft 1kts
28-Nov-17 08:55 36.079603 -115.144874 181 2189ft 0kts
28-Nov-17 08:56 36.078868 -115.144897 180 2189ft 6kts
28-Nov-17 08:57 36.078232 -115.139119 90 2189ft 22kts
28-Nov-17 08:58 36.078250 -115.130656 89 2189ft 29kts
28-Nov-17 08:59 36.077443 -115.121537 133 2189ft 8kts
28-Nov-17 09:00 36.077313 -115.121405 157 2189ft 0kts
28-Nov-17 09:01 36.076390 -115.132934 269 2189ft 123kts
28-Nov-17 09:02 36.076399 -115.193564 271 3629ft 205kts
28-Nov-17 09:03 36.054735 -115.257521 201 5812ft 246kts
28-Nov-17 09:04 35.986587 -115.289050 201 8202ft 277kts
28-Nov-17 09:05 35.912633 -115.326318 201 10598ft 296kts
28-Nov-17 09:06 35.834373 -115.311672 152 12138ft 328kts
28-Nov-17 09:07 35.749162 -115.276186 189 14543ft 333kts
28-Nov-17 09:08 35.668153 -115.324614 227 16513ft 340kts
28-Nov-17 09:09 35.604230 -115.411528 228 18251ft 347kts
28-Nov-17 09:10 35.539417 -115.500980 228 19779ft 355kts
28-Nov-17 09:11 35.473069 -115.592251 227 21144ft 362kts
28-Nov-17 09:12 35.404795 -115.669482 219 22151ft 372kts
28-Nov-17 09:13 35.322185 -115.752267 228 22234ft 404kts
28-Nov-17 09:14 35.244584 -115.857675 228 22188ft 428kts
28-Nov-17 09:15 35.165033 -115.966061 228 22186ft 432kts
28-Nov-17 09:16 35.084706 -116.075273 228 22180ft 428kts
28-Nov-17 09:17 35.005785 -116.182269 228 22180ft 422kts
28-Nov-17 09:18 34.927221 -116.288368 228 22181ft 421kts
28-Nov-17 09:19 34.853132 -116.386692 228 22181ft 427kts
28-Nov-17 09:20 34.802916 -116.512345 252 22192ft 432kts
28-Nov-17 09:21 34.778169 -116.652979 261 22220ft 437kts
28-Nov-17 09:22 34.764068 -116.792940 261 22212ft 436kts
28-Nov-17 09:23 34.749487 -116.938522 261 22210ft 431kts
28-Nov-17 09:24 34.735030 -117.081940 261 22210ft 427kts
28-Nov-17 09:25 34.720867 -117.224482 262 22198ft 417kts
28-Nov-17 09:26 34.707898 -117.356108 261 21184ft 384kts
28-Nov-17 09:27 34.694498 -117.484226 261 19242ft 378kts
28-Nov-17 09:28 34.681180 -117.608355 261 17146ft 368kts
28-Nov-17 09:29 34.668399 -117.725434 260 15046ft 363kts
28-Nov-17 09:30 34.655430 -117.843366 260 13344ft 348kts
28-Nov-17 09:31 34.642961 -117.956634 261 11907ft 331kts
28-Nov-17 09:32 34.631312 -118.062324 261 11241ft 313kts
28-Nov-17 09:33 34.610612 -118.161040 254 9743ft 296kts
28-Nov-17 09:34 34.589957 -118.255125 254 8696ft 285kts
28-Nov-17 09:35 34.570815 -118.342371 255 8027ft 247kts
28-Nov-17 09:36 34.553529 -118.420940 256 8050ft 243kts
28-Nov-17 09:37 34.520662 -118.488699 193 7635ft 258kts
28-Nov-17 09:38 34.450111 -118.468312 163 6045ft 261kts
28-Nov-17 09:39 34.383763 -118.445035 168 5016ft 241kts
28-Nov-17 09:40 34.328368 -118.415322 108 4453ft 230kts
28-Nov-17 09:41 34.293429 -118.364230 195 3804ft 210kts
28-Nov-17 09:42 34.236105 -118.365990 168 2457ft 213kts
28-Nov-17 09:43 34.180875 -118.351682 173 1935ft 204kts
28-Nov-17 09:44 34.174328 -118.387667 350 2244ft 169kts
28-Nov-17 09:45 34.220252 -118.393702 349 2388ft 161kts
28-Nov-17 09:46 34.248542 -118.370332 122 2419ft 170kts
28-Nov-17 09:47 34.206290 -118.358761 168 786ft 144kts
28-Nov-17 09:48 34.197218 -118.354085 89 785ft 21kts
28-Nov-17 09:49 34.196875 -118.351983 176 785ft 0kts

Navigation Log

Ident Type
Flight plan parsing failed, navigation log unavailable